sensor_id;sensor_type;location;lat;lon;timestamp;temperature;humidity
65078;DHT22;51672;51.230;-2.322;2023-01-13T00:01:47;6.50;99.90
65078;DHT22;51672;51.230;-2.322;2023-01-13T00:05:29;6.60;99.90
65078;DHT22;51672;51.230;-2.322;2023-01-13T00:09:11;6.60;99.90
65078;DHT22;51672;51.230;-2.322;2023-01-13T00:12:53;6.60;99.90
65078;DHT22;51672;51.230;-2.322;2023-01-13T00:16:35;6.60;99.90
65078;DHT22;51672;51.230;-2.322;2023-01-13T00:20:17;6.50;99.90
65078;DHT22;51672;51.230;-2.322;2023-01-13T00:23:59;6.50;99.90
65078;DHT22;51672;51.230;-2.322;2023-01-13T00:27:41;6.60;99.90
65078;DHT22;51672;51.230;-2.322;2023-01-13T00:31:24;6.60;99.90
65078;DHT22;51672;51.230;-2.322;2023-01-13T00:35:06;6.60;99.90
65078;DHT22;51672;51.230;-2.322;2023-01-13T00:38:48;6.70;99.90
65078;DHT22;51672;51.230;-2.322;2023-01-13T00:42:30;6.60;99.90
65078;DHT22;51672;51.230;-2.322;2023-01-13T00:46:31;6.60;99.90
65078;DHT22;51672;51.230;-2.322;2023-01-13T00:50:13;6.60;99.90
65078;DHT22;51672;51.230;-2.322;2023-01-13T00:53:56;6.60;99.90
65078;DHT22;51672;51.230;-2.322;2023-01-13T00:57:38;6.60;99.90
65078;DHT22;51672;51.230;-2.322;2023-01-13T01:01:21;6.50;99.90
65078;DHT22;51672;51.230;-2.322;2023-01-13T01:05:04;6.50;99.90
65078;DHT22;51672;51.230;-2.322;2023-01-13T01:08:46;6.50;99.90
65078;DHT22;51672;51.230;-2.322;2023-01-13T01:12:28;6.50;99.90
65078;DHT22;51672;51.230;-2.322;2023-01-13T01:16:13;6.50;99.90
65078;DHT22;51672;51.230;-2.322;2023-01-13T01:19:56;6.40;99.90
65078;DHT22;51672;51.230;-2.322;2023-01-13T01:23:39;6.40;99.90
65078;DHT22;51672;51.230;-2.322;2023-01-13T01:27:21;6.20;99.90
65078;DHT22;51672;51.230;-2.322;2023-01-13T01:31:11;6.30;99.90
65078;DHT22;51672;51.230;-2.322;2023-01-13T01:34:54;6.40;99.90
65078;DHT22;51672;51.230;-2.322;2023-01-13T01:38:37;6.40;99.90
65078;DHT22;51672;51.230;-2.322;2023-01-13T01:42:19;6.40;99.90
65078;DHT22;51672;51.230;-2.322;2023-01-13T01:46:21;6.50;99.90
65078;DHT22;51672;51.230;-2.322;2023-01-13T01:50:04;6.50;99.90
65078;DHT22;51672;51.230;-2.322;2023-01-13T01:53:46;6.50;99.90
65078;DHT22;51672;51.230;-2.322;2023-01-13T01:57:36;6.60;99.90
65078;DHT22;51672;51.230;-2.322;2023-01-13T02:01:19;6.50;99.90
65078;DHT22;51672;51.230;-2.322;2023-01-13T02:05:01;6.60;99.90
65078;DHT22;51672;51.230;-2.322;2023-01-13T02:08:45;6.60;99.90
65078;DHT22;51672;51.230;-2.322;2023-01-13T02:12:28;6.60;99.90
65078;DHT22;51672;51.230;-2.322;2023-01-13T02:16:16;6.60;99.90
65078;DHT22;51672;51.230;-2.322;2023-01-13T02:28:45;6.50;99.90
65078;DHT22;51672;51.230;-2.322;2023-01-13T02:37:27;6.60;99.90
65078;DHT22;51672;51.230;-2.322;2023-01-13T02:41:23;6.70;99.90
65078;DHT22;51672;51.230;-2.322;2023-01-13T02:45:31;6.70;99.90
65078;DHT22;51672;51.230;-2.322;2023-01-13T02:49:29;6.80;99.90
65078;DHT22;51672;51.230;-2.322;2023-01-13T02:53:18;6.80;99.90
65078;DHT22;51672;51.230;-2.322;2023-01-13T02:57:02;6.90;99.90
65078;DHT22;51672;51.230;-2.322;2023-01-13T03:00:45;6.90;99.90
65078;DHT22;51672;51.230;-2.322;2023-01-13T03:04:52;6.90;99.90
65078;DHT22;51672;51.230;-2.322;2023-01-13T03:08:40;7.00;99.90
65078;DHT22;51672;51.230;-2.322;2023-01-13T03:13:13;7.00;99.90
65078;DHT22;51672;51.230;-2.322;2023-01-13T03:25:12;7.00;99.90
65078;DHT22;51672;51.230;-2.322;2023-01-13T03:33:21;6.80;99.90
65078;DHT22;51672;51.230;-2.322;2023-01-13T03:37:07;6.60;99.90
65078;DHT22;51672;51.230;-2.322;2023-01-13T03:40:55;6.60;99.90
65078;DHT22;51672;51.230;-2.322;2023-01-13T03:44:43;6.60;99.90
65078;DHT22;51672;51.230;-2.322;2023-01-13T03:48:29;6.70;99.90
65078;DHT22;51672;51.230;-2.322;2023-01-13T03:52:19;6.70;99.90
65078;DHT22;51672;51.230;-2.322;2023-01-13T03:56:21;6.70;99.90
65078;DHT22;51672;51.230;-2.322;2023-01-13T04:00:06;6.60;99.90
65078;DHT22;51672;51.230;-2.322;2023-01-13T04:03:57;6.60;99.90
65078;DHT22;51672;51.230;-2.322;2023-01-13T04:11:41;6.70;99.90
65078;DHT22;51672;51.230;-2.322;2023-01-13T04:15:47;6.80;99.90
65078;DHT22;51672;51.230;-2.322;2023-01-13T04:19:28;6.80;99.90
65078;DHT22;51672;51.230;-2.322;2023-01-13T04:23:10;6.80;99.90
65078;DHT22;51672;51.230;-2.322;2023-01-13T04:26:54;6.80;99.90
65078;DHT22;51672;51.230;-2.322;2023-01-13T04:30:37;6.60;99.90
65078;DHT22;51672;51.230;-2.322;2023-01-13T04:34:19;6.60;99.90
65078;DHT22;51672;51.230;-2.322;2023-01-13T04:38:07;6.50;99.90
65078;DHT22;51672;51.230;-2.322;2023-01-13T04:41:49;6.50;99.90
65078;DHT22;51672;51.230;-2.322;2023-01-13T04:45:41;6.40;99.90
65078;DHT22;51672;51.230;-2.322;2023-01-13T04:49:23;6.40;99.90
65078;DHT22;51672;51.230;-2.322;2023-01-13T04:53:05;6.40;99.90
65078;DHT22;51672;51.230;-2.322;2023-01-13T04:56:47;6.40;99.90
65078;DHT22;51672;51.230;-2.322;2023-01-13T05:00:29;6.50;99.90
65078;DHT22;51672;51.230;-2.322;2023-01-13T05:04:12;6.60;99.90
65078;DHT22;51672;51.230;-2.322;2023-01-13T05:07:56;6.60;99.90
65078;DHT22;51672;51.230;-2.322;2023-01-13T05:11:38;6.60;99.90
65078;DHT22;51672;51.230;-2.322;2023-01-13T05:15:40;6.60;99.90
65078;DHT22;51672;51.230;-2.322;2023-01-13T05:19:41;6.60;99.90
65078;DHT22;51672;51.230;-2.322;2023-01-13T05:23:23;6.60;99.90
65078;DHT22;51672;51.230;-2.322;2023-01-13T05:27:24;6.60;99.90
65078;DHT22;51672;51.230;-2.322;2023-01-13T05:31:06;6.70;99.90
65078;DHT22;51672;51.230;-2.322;2023-01-13T05:34:49;6.70;99.90
65078;DHT22;51672;51.230;-2.322;2023-01-13T05:38:31;6.70;99.90
65078;DHT22;51672;51.230;-2.322;2023-01-13T05:42:13;6.70;99.90
65078;DHT22;51672;51.230;-2.322;2023-01-13T05:46:13;6.70;99.90
65078;DHT22;51672;51.230;-2.322;2023-01-13T05:49:58;6.80;99.90
65078;DHT22;51672;51.230;-2.322;2023-01-13T05:53:40;6.80;99.90
65078;DHT22;51672;51.230;-2.322;2023-01-13T05:57:22;6.80;99.90
65078;DHT22;51672;51.230;-2.322;2023-01-13T06:01:06;6.90;99.90
65078;DHT22;51672;51.230;-2.322;2023-01-13T06:04:49;7.00;99.90
65078;DHT22;51672;51.230;-2.322;2023-01-13T06:08:31;7.10;99.90
65078;DHT22;51672;51.230;-2.322;2023-01-13T06:12:13;7.20;99.90
65078;DHT22;51672;51.230;-2.322;2023-01-13T06:15:58;7.30;99.90
65078;DHT22;51672;51.230;-2.322;2023-01-13T06:19:41;7.30;99.90
65078;DHT22;51672;51.230;-2.322;2023-01-13T06:23:23;7.40;99.90
65078;DHT22;51672;51.230;-2.322;2023-01-13T06:27:07;7.40;99.90
65078;DHT22;51672;51.230;-2.322;2023-01-13T06:30:52;7.30;99.90
65078;DHT22;51672;51.230;-2.322;2023-01-13T06:34:37;7.40;99.90
65078;DHT22;51672;51.230;-2.322;2023-01-13T06:38:23;7.30;99.90
65078;DHT22;51672;51.230;-2.322;2023-01-13T06:42:06;7.30;99.90
65078;DHT22;51672;51.230;-2.322;2023-01-13T06:46:07;7.40;99.90
65078;DHT22;51672;51.230;-2.322;2023-01-13T06:49:48;7.50;99.90
65078;DHT22;51672;51.230;-2.322;2023-01-13T06:53:30;7.50;99.90
65078;DHT22;51672;51.230;-2.322;2023-01-13T06:57:13;7.60;99.90
65078;DHT22;51672;51.230;-2.322;2023-01-13T07:00:59;7.60;99.90
65078;DHT22;51672;51.230;-2.322;2023-01-13T07:04:41;7.60;99.90
65078;DHT22;51672;51.230;-2.322;2023-01-13T07:08:25;7.70;99.90
65078;DHT22;51672;51.230;-2.322;2023-01-13T07:12:07;7.70;99.90
65078;DHT22;51672;51.230;-2.322;2023-01-13T07:15:56;7.70;99.90
65078;DHT22;51672;51.230;-2.322;2023-01-13T07:19:38;7.70;99.90
65078;DHT22;51672;51.230;-2.322;2023-01-13T07:23:20;7.80;99.90
65078;DHT22;51672;51.230;-2.322;2023-01-13T07:27:02;7.80;99.90
65078;DHT22;51672;51.230;-2.322;2023-01-13T07:30:44;7.80;99.90
65078;DHT22;51672;51.230;-2.322;2023-01-13T07:34:26;7.80;99.90
65078;DHT22;51672;51.230;-2.322;2023-01-13T07:38:08;7.80;99.90
65078;DHT22;51672;51.230;-2.322;2023-01-13T07:41:51;7.80;99.90
65078;DHT22;51672;51.230;-2.322;2023-01-13T07:46:03;7.80;99.90
65078;DHT22;51672;51.230;-2.322;2023-01-13T07:49:45;7.70;99.90
65078;DHT22;51672;51.230;-2.322;2023-01-13T07:53:27;7.60;99.90
65078;DHT22;51672;51.230;-2.322;2023-01-13T07:57:09;7.50;99.90
65078;DHT22;51672;51.230;-2.322;2023-01-13T08:00:51;7.50;99.90
65078;DHT22;51672;51.230;-2.322;2023-01-13T08:04:34;7.50;99.90
65078;DHT22;51672;51.230;-2.322;2023-01-13T08:08:16;7.40;99.90
65078;DHT22;51672;51.230;-2.322;2023-01-13T08:11:58;7.40;99.90
65078;DHT22;51672;51.230;-2.322;2023-01-13T08:16:02;7.40;99.90
65078;DHT22;51672;51.230;-2.322;2023-01-13T08:19:44;7.40;99.90
65078;DHT22;51672;51.230;-2.322;2023-01-13T08:23:26;7.40;99.90
65078;DHT22;51672;51.230;-2.322;2023-01-13T08:27:08;7.40;99.90
65078;DHT22;51672;51.230;-2.322;2023-01-13T08:30:50;7.30;99.90
65078;DHT22;51672;51.230;-2.322;2023-01-13T08:34:35;7.30;99.90
65078;DHT22;51672;51.230;-2.322;2023-01-13T08:38:17;7.30;99.90
65078;DHT22;51672;51.230;-2.322;2023-01-13T08:41:59;7.30;99.90
65078;DHT22;51672;51.230;-2.322;2023-01-13T08:45:42;7.30;99.90
65078;DHT22;51672;51.230;-2.322;2023-01-13T08:49:24;7.40;99.90
65078;DHT22;51672;51.230;-2.322;2023-01-13T08:53:06;7.40;99.90
65078;DHT22;51672;51.230;-2.322;2023-01-13T08:56:48;7.40;99.90
65078;DHT22;51672;51.230;-2.322;2023-01-13T09:00:30;7.40;99.90
65078;DHT22;51672;51.230;-2.322;2023-01-13T09:04:21;7.50;99.90
65078;DHT22;51672;51.230;-2.322;2023-01-13T09:08:08;7.60;99.90
65078;DHT22;51672;51.230;-2.322;2023-01-13T09:11:50;7.70;99.90
65078;DHT22;51672;51.230;-2.322;2023-01-13T09:15:51;7.80;99.90
65078;DHT22;51672;51.230;-2.322;2023-01-13T09:19:37;7.80;99.90
65078;DHT22;51672;51.230;-2.322;2023-01-13T09:23:19;7.90;99.90
65078;DHT22;51672;51.230;-2.322;2023-01-13T09:27:01;7.90;99.90
65078;DHT22;51672;51.230;-2.322;2023-01-13T09:30:43;7.90;99.90
65078;DHT22;51672;51.230;-2.322;2023-01-13T09:34:25;8.00;99.90
65078;DHT22;51672;51.230;-2.322;2023-01-13T09:38:26;8.30;99.90
65078;DHT22;51672;51.230;-2.322;2023-01-13T09:42:30;8.40;99.90
65078;DHT22;51672;51.230;-2.322;2023-01-13T09:46:41;8.40;99.90
65078;DHT22;51672;51.230;-2.322;2023-01-13T09:50:49;8.40;99.90
65078;DHT22;51672;51.230;-2.322;2023-01-13T09:54:43;8.40;99.90
65078;DHT22;51672;51.230;-2.322;2023-01-13T09:58:26;8.60;99.90
65078;DHT22;51672;51.230;-2.322;2023-01-13T10:02:39;8.70;99.90
65078;DHT22;51672;51.230;-2.322;2023-01-13T10:06:35;8.80;99.90
65078;DHT22;51672;51.230;-2.322;2023-01-13T10:10:39;8.80;99.90
65078;DHT22;51672;51.230;-2.322;2023-01-13T10:14:50;8.70;99.90
65078;DHT22;51672;51.230;-2.322;2023-01-13T10:30:45;8.80;99.90
65078;DHT22;51672;51.230;-2.322;2023-01-13T10:34:28;8.90;99.90
65078;DHT22;51672;51.230;-2.322;2023-01-13T10:42:05;8.90;99.90
65078;DHT22;51672;51.230;-2.322;2023-01-13T10:46:11;8.90;99.90
65078;DHT22;51672;51.230;-2.322;2023-01-13T10:50:20;8.80;99.90
65078;DHT22;51672;51.230;-2.322;2023-01-13T10:57:52;8.80;99.90
65078;DHT22;51672;51.230;-2.322;2023-01-13T11:01:34;8.80;99.90
65078;DHT22;51672;51.230;-2.322;2023-01-13T11:05:21;8.80;99.90
65078;DHT22;51672;51.230;-2.322;2023-01-13T11:09:20;8.90;99.90
65078;DHT22;51672;51.230;-2.322;2023-01-13T11:13:10;9.00;99.90
65078;DHT22;51672;51.230;-2.322;2023-01-13T11:16:57;9.10;99.90
65078;DHT22;51672;51.230;-2.322;2023-01-13T11:20:43;9.10;99.90
65078;DHT22;51672;51.230;-2.322;2023-01-13T11:24:41;9.10;99.90
65078;DHT22;51672;51.230;-2.322;2023-01-13T11:32:24;9.10;99.90
65078;DHT22;51672;51.230;-2.322;2023-01-13T11:36:13;9.10;99.90
65078;DHT22;51672;51.230;-2.322;2023-01-13T11:44:22;9.00;99.90
65078;DHT22;51672;51.230;-2.322;2023-01-13T11:48:13;9.00;99.90
65078;DHT22;51672;51.230;-2.322;2023-01-13T11:52:18;9.00;99.90
65078;DHT22;51672;51.230;-2.322;2023-01-13T12:08:20;9.00;99.90
65078;DHT22;51672;51.230;-2.322;2023-01-13T12:12:28;9.10;99.90
65078;DHT22;51672;51.230;-2.322;2023-01-13T12:16:30;9.20;99.90
65078;DHT22;51672;51.230;-2.322;2023-01-13T12:24:32;9.20;99.90
65078;DHT22;51672;51.230;-2.322;2023-01-13T12:32:33;9.20;99.90
65078;DHT22;51672;51.230;-2.322;2023-01-13T12:44:28;9.30;99.90
65078;DHT22;51672;51.230;-2.322;2023-01-13T12:52:43;9.30;99.90
65078;DHT22;51672;51.230;-2.322;2023-01-13T13:00:19;9.20;99.90
65078;DHT22;51672;51.230;-2.322;2023-01-13T13:04:12;9.30;99.90
65078;DHT22;51672;51.230;-2.322;2023-01-13T13:43:38;9.20;99.90
65078;DHT22;51672;51.230;-2.322;2023-01-13T13:48:18;9.30;99.90
65078;DHT22;51672;51.230;-2.322;2023-01-13T13:56:02;9.20;99.90
65078;DHT22;51672;51.230;-2.322;2023-01-13T14:04:05;9.20;99.90
65078;DHT22;51672;51.230;-2.322;2023-01-13T14:08:17;9.20;99.90
65078;DHT22;51672;51.230;-2.322;2023-01-13T14:16:23;9.30;99.90
65078;DHT22;51672;51.230;-2.322;2023-01-13T14:42:23;9.20;99.90
65078;DHT22;51672;51.230;-2.322;2023-01-13T15:28:30;8.50;99.90
65078;DHT22;51672;51.230;-2.322;2023-01-13T15:41:44;8.30;99.90
65078;DHT22;51672;51.230;-2.322;2023-01-13T16:13:02;8.00;99.90
65078;DHT22;51672;51.230;-2.322;2023-01-13T16:16:44;7.90;99.90
65078;DHT22;51672;51.230;-2.322;2023-01-13T16:25:20;7.80;99.90
65078;DHT22;51672;51.230;-2.322;2023-01-13T16:29:02;7.80;99.90
65078;DHT22;51672;51.230;-2.322;2023-01-13T16:32:45;7.70;99.90
65078;DHT22;51672;51.230;-2.322;2023-01-13T16:36:30;7.60;99.90
65078;DHT22;51672;51.230;-2.322;2023-01-13T16:44:03;7.50;99.90
65078;DHT22;51672;51.230;-2.322;2023-01-13T16:47:47;7.40;99.90
65078;DHT22;51672;51.230;-2.322;2023-01-13T16:51:29;7.30;99.90
65078;DHT22;51672;51.230;-2.322;2023-01-13T16:55:11;7.20;99.90
65078;DHT22;51672;51.230;-2.322;2023-01-13T16:58:55;7.10;99.90
65078;DHT22;51672;51.230;-2.322;2023-01-13T17:02:38;7.00;99.90
65078;DHT22;51672;51.230;-2.322;2023-01-13T17:06:27;7.00;99.90
65078;DHT22;51672;51.230;-2.322;2023-01-13T17:10:15;6.90;99.90
65078;DHT22;51672;51.230;-2.322;2023-01-13T17:13:58;6.80;99.90
65078;DHT22;51672;51.230;-2.322;2023-01-13T17:17:42;6.80;99.90
65078;DHT22;51672;51.230;-2.322;2023-01-13T17:21:24;6.80;99.90
65078;DHT22;51672;51.230;-2.322;2023-01-13T17:25:07;6.80;99.90
65078;DHT22;51672;51.230;-2.322;2023-01-13T17:28:49;6.70;99.90
65078;DHT22;51672;51.230;-2.322;2023-01-13T17:32:31;6.60;99.90
65078;DHT22;51672;51.230;-2.322;2023-01-13T17:36:14;6.50;99.90
65078;DHT22;51672;51.230;-2.322;2023-01-13T17:39:56;6.40;99.90
65078;DHT22;51672;51.230;-2.322;2023-01-13T17:43:38;6.30;99.90
65078;DHT22;51672;51.230;-2.322;2023-01-13T17:47:20;6.30;99.90
65078;DHT22;51672;51.230;-2.322;2023-01-13T17:51:02;6.20;99.90
65078;DHT22;51672;51.230;-2.322;2023-01-13T17:54:47;6.10;99.90
65078;DHT22;51672;51.230;-2.322;2023-01-13T17:58:29;6.00;99.90
65078;DHT22;51672;51.230;-2.322;2023-01-13T18:02:11;6.00;99.90
65078;DHT22;51672;51.230;-2.322;2023-01-13T18:05:54;5.90;99.90
65078;DHT22;51672;51.230;-2.322;2023-01-13T18:09:47;5.80;99.90
65078;DHT22;51672;51.230;-2.322;2023-01-13T18:13:36;5.80;99.90
65078;DHT22;51672;51.230;-2.322;2023-01-13T18:17:41;5.80;99.90
65078;DHT22;51672;51.230;-2.322;2023-01-13T18:21:27;5.80;99.90
65078;DHT22;51672;51.230;-2.322;2023-01-13T18:25:27;5.80;99.90
65078;DHT22;51672;51.230;-2.322;2023-01-13T18:29:27;5.80;99.90
65078;DHT22;51672;51.230;-2.322;2023-01-13T18:33:09;5.80;99.90
65078;DHT22;51672;51.230;-2.322;2023-01-13T18:36:52;5.90;99.90
65078;DHT22;51672;51.230;-2.322;2023-01-13T18:40:33;5.90;99.90
65078;DHT22;51672;51.230;-2.322;2023-01-13T18:44:15;5.90;99.90
65078;DHT22;51672;51.230;-2.322;2023-01-13T18:48:00;5.90;99.90
65078;DHT22;51672;51.230;-2.322;2023-01-13T18:51:42;5.90;99.90
65078;DHT22;51672;51.230;-2.322;2023-01-13T18:55:24;6.00;99.90
65078;DHT22;51672;51.230;-2.322;2023-01-13T18:59:09;6.10;99.90
65078;DHT22;51672;51.230;-2.322;2023-01-13T19:02:51;6.10;99.90
65078;DHT22;51672;51.230;-2.322;2023-01-13T19:06:46;6.00;99.90
65078;DHT22;51672;51.230;-2.322;2023-01-13T19:10:31;6.00;99.90
65078;DHT22;51672;51.230;-2.322;2023-01-13T19:14:13;5.90;99.90
65078;DHT22;51672;51.230;-2.322;2023-01-13T19:18:14;5.80;99.90
65078;DHT22;51672;51.230;-2.322;2023-01-13T19:21:57;5.80;99.90
65078;DHT22;51672;51.230;-2.322;2023-01-13T19:25:42;5.70;99.90
65078;DHT22;51672;51.230;-2.322;2023-01-13T19:29:26;5.70;99.90
65078;DHT22;51672;51.230;-2.322;2023-01-13T19:33:08;5.60;99.90
65078;DHT22;51672;51.230;-2.322;2023-01-13T19:37:00;5.60;99.90
65078;DHT22;51672;51.230;-2.322;2023-01-13T19:40:54;5.50;99.90
65078;DHT22;51672;51.230;-2.322;2023-01-13T19:44:39;5.60;99.90
65078;DHT22;51672;51.230;-2.322;2023-01-13T19:48:43;5.60;99.90
65078;DHT22;51672;51.230;-2.322;2023-01-13T19:52:28;5.60;99.90
65078;DHT22;51672;51.230;-2.322;2023-01-13T19:56:22;5.60;99.90
65078;DHT22;51672;51.230;-2.322;2023-01-13T20:00:11;5.60;99.90
65078;DHT22;51672;51.230;-2.322;2023-01-13T20:04:05;5.60;99.90
65078;DHT22;51672;51.230;-2.322;2023-01-13T20:07:57;5.60;99.90
65078;DHT22;51672;51.230;-2.322;2023-01-13T20:12:24;5.60;99.90
65078;DHT22;51672;51.230;-2.322;2023-01-13T20:16:13;5.50;99.90
65078;DHT22;51672;51.230;-2.322;2023-01-13T20:19:57;5.50;99.90
65078;DHT22;51672;51.230;-2.322;2023-01-13T20:23:55;5.50;99.90
65078;DHT22;51672;51.230;-2.322;2023-01-13T20:28:11;5.50;99.90
65078;DHT22;51672;51.230;-2.322;2023-01-13T20:36:56;5.40;99.90
65078;DHT22;51672;51.230;-2.322;2023-01-13T20:41:41;5.30;99.90
65078;DHT22;51672;51.230;-2.322;2023-01-13T20:46:05;5.30;99.90
65078;DHT22;51672;51.230;-2.322;2023-01-13T20:50:16;5.20;99.90
65078;DHT22;51672;51.230;-2.322;2023-01-13T20:53:58;5.20;99.90
65078;DHT22;51672;51.230;-2.322;2023-01-13T20:57:40;5.20;99.90
65078;DHT22;51672;51.230;-2.322;2023-01-13T21:01:22;5.20;99.90
65078;DHT22;51672;51.230;-2.322;2023-01-13T21:05:04;5.20;99.90
65078;DHT22;51672;51.230;-2.322;2023-01-13T21:08:47;5.20;99.90
65078;DHT22;51672;51.230;-2.322;2023-01-13T21:12:29;5.10;99.90
65078;DHT22;51672;51.230;-2.322;2023-01-13T21:16:29;5.10;99.90
65078;DHT22;51672;51.230;-2.322;2023-01-13T21:20:13;5.10;99.90
65078;DHT22;51672;51.230;-2.322;2023-01-13T21:23:55;5.10;99.90
65078;DHT22;51672;51.230;-2.322;2023-01-13T21:27:37;5.20;99.90
65078;DHT22;51672;51.230;-2.322;2023-01-13T21:31:19;5.20;99.90
65078;DHT22;51672;51.230;-2.322;2023-01-13T21:35:01;5.20;99.90
65078;DHT22;51672;51.230;-2.322;2023-01-13T21:38:43;5.20;99.90
65078;DHT22;51672;51.230;-2.322;2023-01-13T21:42:25;5.20;99.90
65078;DHT22;51672;51.230;-2.322;2023-01-13T21:46:25;5.30;99.90
65078;DHT22;51672;51.230;-2.322;2023-01-13T21:50:27;5.30;99.90
65078;DHT22;51672;51.230;-2.322;2023-01-13T21:54:09;5.50;99.90
65078;DHT22;51672;51.230;-2.322;2023-01-13T21:57:59;5.60;99.90
65078;DHT22;51672;51.230;-2.322;2023-01-13T22:01:47;5.60;99.90
65078;DHT22;51672;51.230;-2.322;2023-01-13T22:05:53;5.80;99.90
65078;DHT22;51672;51.230;-2.322;2023-01-13T22:09:36;5.90;99.90
65078;DHT22;51672;51.230;-2.322;2023-01-13T22:13:18;6.00;99.90
65078;DHT22;51672;51.230;-2.322;2023-01-13T22:17:20;6.10;99.90
65078;DHT22;51672;51.230;-2.322;2023-01-13T22:21:03;6.30;99.90
65078;DHT22;51672;51.230;-2.322;2023-01-13T22:24:47;6.50;99.90
65078;DHT22;51672;51.230;-2.322;2023-01-13T22:28:29;6.60;99.90
65078;DHT22;51672;51.230;-2.322;2023-01-13T22:32:15;6.80;99.90
65078;DHT22;51672;51.230;-2.322;2023-01-13T22:35:57;6.90;99.90
65078;DHT22;51672;51.230;-2.322;2023-01-13T22:39:39;7.00;99.90
65078;DHT22;51672;51.230;-2.322;2023-01-13T22:43:21;7.20;99.90
65078;DHT22;51672;51.230;-2.322;2023-01-13T22:47:03;7.30;99.90
65078;DHT22;51672;51.230;-2.322;2023-01-13T22:50:45;7.30;99.90
65078;DHT22;51672;51.230;-2.322;2023-01-13T22:54:27;7.40;99.90
65078;DHT22;51672;51.230;-2.322;2023-01-13T22:58:09;7.50;99.90
65078;DHT22;51672;51.230;-2.322;2023-01-13T23:01:51;7.60;99.90
65078;DHT22;51672;51.230;-2.322;2023-01-13T23:05:34;7.60;99.90
65078;DHT22;51672;51.230;-2.322;2023-01-13T23:09:17;7.70;99.90
65078;DHT22;51672;51.230;-2.322;2023-01-13T23:12:59;7.80;99.90
65078;DHT22;51672;51.230;-2.322;2023-01-13T23:16:41;7.90;99.90
65078;DHT22;51672;51.230;-2.322;2023-01-13T23:20:23;7.90;99.90
65078;DHT22;51672;51.230;-2.322;2023-01-13T23:24:06;8.00;99.90
65078;DHT22;51672;51.230;-2.322;2023-01-13T23:27:48;8.00;99.90
65078;DHT22;51672;51.230;-2.322;2023-01-13T23:31:30;8.00;99.90
65078;DHT22;51672;51.230;-2.322;2023-01-13T23:35:13;8.10;99.90
65078;DHT22;51672;51.230;-2.322;2023-01-13T23:38:57;8.10;99.90
65078;DHT22;51672;51.230;-2.322;2023-01-13T23:42:39;8.10;99.90
65078;DHT22;51672;51.230;-2.322;2023-01-13T23:46:22;8.20;99.90
65078;DHT22;51672;51.230;-2.322;2023-01-13T23:50:04;8.20;99.90
65078;DHT22;51672;51.230;-2.322;2023-01-13T23:53:48;8.20;99.90
65078;DHT22;51672;51.230;-2.322;2023-01-13T23:57:30;8.30;99.90
